sensor_id;sensor_type;location;lat;lon;timestamp;pressure;altitude;pressure_sealevel;temperature;humidity
18819;BME280;9537;45.594;9.294;2023-03-04T00:00:13;99864.56;;;7.66;80.09
18819;BME280;9537;45.594;9.294;2023-03-04T00:01:15;99867.06;;;7.67;79.70
18819;BME280;9537;45.594;9.294;2023-03-04T00:02:16;99867.88;;;7.68;79.58
18819;BME280;9537;45.594;9.294;2023-03-04T00:03:18;99865.75;;;7.72;79.48
18819;BME280;9537;45.594;9.294;2023-03-04T00:04:19;99873.50;;;7.73;79.47
18819;BME280;9537;45.594;9.294;2023-03-04T00:05:21;99866.44;;;7.74;79.83
18819;BME280;9537;45.594;9.294;2023-03-04T00:06:23;99864.81;;;7.73;80.10
18819;BME280;9537;45.594;9.294;2023-03-04T00:07:25;99862.84;;;7.75;80.12
18819;BME280;9537;45.594;9.294;2023-03-04T00:08:26;99862.31;;;7.71;80.31
18819;BME280;9537;45.594;9.294;2023-03-04T00:09:28;99865.75;;;7.72;80.13
18819;BME280;9537;45.594;9.294;2023-03-04T00:10:29;99863.81;;;7.74;79.68
18819;BME280;9537;45.594;9.294;2023-03-04T00:11:31;99865.03;;;7.79;79.39
18819;BME280;9537;45.594;9.294;2023-03-04T00:12:32;99870.81;;;7.83;79.42
18819;BME280;9537;45.594;9.294;2023-03-04T00:13:34;99871.78;;;7.82;79.73
18819;BME280;9537;45.594;9.294;2023-03-04T00:14:35;99870.19;;;7.71;79.30
18819;BME280;9537;45.594;9.294;2023-03-04T00:15:37;99872.31;;;7.67;80.33
18819;BME280;9537;45.594;9.294;2023-03-04T00:16:38;99872.31;;;7.67;79.91
18819;BME280;9537;45.594;9.294;2023-03-04T00:17:40;99868.56;;;7.70;79.95
18819;BME280;9537;45.594;9.294;2023-03-04T00:18:41;99869.50;;;7.69;80.04
18819;BME280;9537;45.594;9.294;2023-03-04T00:19:43;99864.66;;;7.74;79.32
18819;BME280;9537;45.594;9.294;2023-03-04T00:20:44;99866.59;;;7.72;80.10
18819;BME280;9537;45.594;9.294;2023-03-04T00:21:47;99869.22;;;7.72;79.62
18819;BME280;9537;45.594;9.294;2023-03-04T00:22:49;99869.69;;;7.67;79.48
18819;BME280;9537;45.594;9.294;2023-03-04T00:23:51;99860.72;;;7.60;80.29
18819;BME280;9537;45.594;9.294;2023-03-04T00:24:52;99869.28;;;7.62;80.73
18819;BME280;9537;45.594;9.294;2023-03-04T00:25:54;99869.97;;;7.64;80.82
18819;BME280;9537;45.594;9.294;2023-03-04T00:26:54;99864.16;;;7.61;81.25
18819;BME280;9537;45.594;9.294;2023-03-04T00:27:56;99866.66;;;7.62;80.53
18819;BME280;9537;45.594;9.294;2023-03-04T00:28:57;99874.69;;;7.61;80.85
18819;BME280;9537;45.594;9.294;2023-03-04T00:29:59;99865.69;;;7.63;81.20
18819;BME280;9537;45.594;9.294;2023-03-04T00:31:00;99866.06;;;7.68;80.76
18819;BME280;9537;45.594;9.294;2023-03-04T00:32:02;99863.88;;;7.64;80.39
18819;BME280;9537;45.594;9.294;2023-03-04T00:33:03;99861.41;;;7.62;80.42
18819;BME280;9537;45.594;9.294;2023-03-04T00:34:06;99865.69;;;7.63;80.56
18819;BME280;9537;45.594;9.294;2023-03-04T00:35:07;99864.84;;;7.63;80.60
18819;BME280;9537;45.594;9.294;2023-03-04T00:36:10;99862.41;;;7.61;80.66
18819;BME280;9537;45.594;9.294;2023-03-04T00:37:12;99872.59;;;7.64;80.43
18819;BME280;9537;45.594;9.294;2023-03-04T00:38:14;99872.59;;;7.64;80.59
18819;BME280;9537;45.594;9.294;2023-03-04T00:39:15;99879.38;;;7.67;80.97
18819;BME280;9537;45.594;9.294;2023-03-04T00:40:17;99872.31;;;7.67;81.44
18819;BME280;9537;45.594;9.294;2023-03-04T00:41:18;99866.06;;;7.68;81.45
18819;BME280;9537;45.594;9.294;2023-03-04T00:42:20;99873.66;;;7.72;81.22
18819;BME280;9537;45.594;9.294;2023-03-04T00:43:21;99869.22;;;7.72;81.65
18819;BME280;9537;45.594;9.294;2023-03-04T00:44:23;99865.75;;;7.72;81.31
18819;BME280;9537;45.594;9.294;2023-03-04T00:45:24;99864.56;;;7.66;81.04
18819;BME280;9537;45.594;9.294;2023-03-04T00:46:26;99875.91;;;7.66;81.80
18819;BME280;9537;45.594;9.294;2023-03-04T00:47:27;99877.25;;;7.71;81.46
18819;BME280;9537;45.594;9.294;2023-03-04T00:48:29;99870.88;;;7.73;81.16
18819;BME280;9537;45.594;9.294;2023-03-04T00:49:30;99871.72;;;7.74;80.91
18819;BME280;9537;45.594;9.294;2023-03-04T00:50:32;99875.16;;;7.74;81.18
18819;BME280;9537;45.594;9.294;2023-03-04T00:51:33;99867.44;;;7.73;81.04
18819;BME280;9537;45.594;9.294;2023-03-04T00:52:36;99872.53;;;7.74;80.78
18819;BME280;9537;45.594;9.294;2023-03-04T00:53:37;99875.03;;;7.76;81.03
18819;BME280;9537;45.594;9.294;2023-03-04T00:54:39;99872.69;;;7.73;81.20
18819;BME280;9537;45.594;9.294;2023-03-04T00:55:40;99871.72;;;7.74;81.07
18819;BME280;9537;45.594;9.294;2023-03-04T00:56:42;99871.41;;;7.77;81.12
18819;BME280;9537;45.594;9.294;2023-03-04T00:57:43;99866.97;;;7.77;80.94
18819;BME280;9537;45.594;9.294;2023-03-04T00:58:45;99870.28;;;7.79;80.94
18819;BME280;9537;45.594;9.294;2023-03-04T00:59:46;99870.28;;;7.79;80.34
18819;BME280;9537;45.594;9.294;2023-03-04T01:00:48;99866.84;;;7.79;81.01
18819;BME280;9537;45.594;9.294;2023-03-04T01:01:49;99869.47;;;7.79;81.10
18819;BME280;9537;45.594;9.294;2023-03-04T01:02:51;99865.97;;;7.78;81.37
18819;BME280;9537;45.594;9.294;2023-03-04T01:03:52;99866.97;;;7.77;81.44
18819;BME280;9537;45.594;9.294;2023-03-04T01:04:55;99866.84;;;7.79;80.72
18819;BME280;9537;45.594;9.294;2023-03-04T01:05:56;99862.09;;;7.82;80.36
18819;BME280;9537;45.594;9.294;2023-03-04T01:06:58;99864.03;;;7.80;81.29
18819;BME280;9537;45.594;9.294;2023-03-04T01:08:00;99861.28;;;7.82;81.49
18819;BME280;9537;45.594;9.294;2023-03-04T01:09:02;99866.16;;;7.77;81.56
18819;BME280;9537;45.594;9.294;2023-03-04T01:10:04;99862.84;;;7.75;81.86
18819;BME280;9537;45.594;9.294;2023-03-04T01:11:07;99862.84;;;7.75;81.65
18819;BME280;9537;45.594;9.294;2023-03-04T01:12:08;99864.13;;;7.71;82.41
18819;BME280;9537;45.594;9.294;2023-03-04T01:13:10;99856.75;;;7.74;81.94
18819;BME280;9537;45.594;9.294;2023-03-04T01:14:11;99856.22;;;7.71;81.45
18819;BME280;9537;45.594;9.294;2023-03-04T01:15:13;99856.22;;;7.71;82.23
18819;BME280;9537;45.594;9.294;2023-03-04T01:16:14;99860.38;;;7.73;81.95
18819;BME280;9537;45.594;9.294;2023-03-04T01:17:16;99854.56;;;7.70;81.73
18819;BME280;9537;45.594;9.294;2023-03-04T01:18:17;99852.91;;;7.68;82.53
18819;BME280;9537;45.594;9.294;2023-03-04T01:19:20;99849.09;;;7.63;82.31
18819;BME280;9537;45.594;9.294;2023-03-04T01:20:21;99847.16;;;7.65;82.85
18819;BME280;9537;45.594;9.294;2023-03-04T01:21:23;99851.72;;;7.63;82.52
18819;BME280;9537;45.594;9.294;2023-03-04T01:22:24;99844.50;;;7.65;83.06
18819;BME280;9537;45.594;9.294;2023-03-04T01:23:27;99842.69;;;7.65;82.63
18819;BME280;9537;45.594;9.294;2023-03-04T01:24:28;99844.34;;;7.66;82.67
18819;BME280;9537;45.594;9.294;2023-03-04T01:25:31;99843.69;;;7.64;82.59
18819;BME280;9537;45.594;9.294;2023-03-04T01:26:32;99835.41;;;7.59;83.22
18819;BME280;9537;45.594;9.294;2023-03-04T01:27:34;99839.03;;;7.58;83.22
18819;BME280;9537;45.594;9.294;2023-03-04T01:28:35;99844.13;;;7.60;83.34
18819;BME280;9537;45.594;9.294;2023-03-04T01:29:37;99842.47;;;7.59;82.76
18819;BME280;9537;45.594;9.294;2023-03-04T01:30:38;99841.50;;;7.60;82.31
18819;BME280;9537;45.594;9.294;2023-03-04T01:31:40;99840.97;;;7.56;82.52
18819;BME280;9537;45.594;9.294;2023-03-04T01:32:41;99842.78;;;7.56;82.81
18819;BME280;9537;45.594;9.294;2023-03-04T01:33:43;99840.28;;;7.54;83.29
18819;BME280;9537;45.594;9.294;2023-03-04T01:34:44;99841.78;;;7.57;82.84
18819;BME280;9537;45.594;9.294;2023-03-04T01:35:46;99836.69;;;7.55;83.19
18819;BME280;9537;45.594;9.294;2023-03-04T01:36:47;99841.13;;;7.55;82.68
18819;BME280;9537;45.594;9.294;2023-03-04T01:37:49;99837.22;;;7.59;82.33
18819;BME280;9537;45.594;9.294;2023-03-04T01:38:51;99833.78;;;7.58;82.48
18819;BME280;9537;45.594;9.294;2023-03-04T01:39:53;99839.03;;;7.58;82.52
18819;BME280;9537;45.594;9.294;2023-03-04T01:40:54;99838.47;;;7.55;82.98
18819;BME280;9537;45.594;9.294;2023-03-04T01:41:57;99837.66;;;7.54;83.50
18819;BME280;9537;45.594;9.294;2023-03-04T01:42:58;99840.28;;;7.54;82.95
18819;BME280;9537;45.594;9.294;2023-03-04T01:44:01;99842.09;;;7.54;83.27
18819;BME280;9537;45.594;9.294;2023-03-04T01:45:03;99841.13;;;7.55;83.17
18819;BME280;9537;45.594;9.294;2023-03-04T01:46:06;99839.31;;;7.55;83.35
18819;BME280;9537;45.594;9.294;2023-03-04T01:47:08;99838.66;;;7.53;83.06
18819;BME280;9537;45.594;9.294;2023-03-04T01:48:12;99841.41;;;7.52;83.65
18819;BME280;9537;45.594;9.294;2023-03-04T01:49:16;99837.81;;;7.53;83.61
18819;BME280;9537;45.594;9.294;2023-03-04T01:50:23;99839.47;;;7.54;83.27
18819;BME280;9537;45.594;9.294;2023-03-04T01:51:26;99841.94;;;7.55;83.36
18819;BME280;9537;45.594;9.294;2023-03-04T01:52:28;99845.25;;;7.57;82.67
18819;BME280;9537;45.594;9.294;2023-03-04T01:53:31;99844.44;;;7.57;83.38
18819;BME280;9537;45.594;9.294;2023-03-04T01:54:34;99844.44;;;7.57;82.50
18819;BME280;9537;45.594;9.294;2023-03-04T01:55:35;99844.84;;;7.52;82.79
18819;BME280;9537;45.594;9.294;2023-03-04T01:56:39;99847.19;;;7.55;83.03
18819;BME280;9537;45.594;9.294;2023-03-04T01:57:40;99840.97;;;7.56;83.30
18819;BME280;9537;45.594;9.294;2023-03-04T01:58:42;99846.91;;;7.58;82.78
18819;BME280;9537;45.594;9.294;2023-03-04T01:59:43;99842.19;;;7.62;83.24
18819;BME280;9537;45.594;9.294;2023-03-04T02:00:46;99841.06;;;7.64;82.53
18819;BME280;9537;45.594;9.294;2023-03-04T02:01:49;99842.69;;;7.65;82.91
18819;BME280;9537;45.594;9.294;2023-03-04T02:02:56;99841.59;;;7.68;82.09
18819;BME280;9537;45.594;9.294;2023-03-04T02:03:58;99837.00;;;7.70;82.12
18819;BME280;9537;45.594;9.294;2023-03-04T02:05:00;99845.56;;;7.72;82.27
18819;BME280;9537;45.594;9.294;2023-03-04T02:06:01;99834.22;;;7.72;82.32
18819;BME280;9537;45.594;9.294;2023-03-04T02:07:03;99839.63;;;7.70;82.94
18819;BME280;9537;45.594;9.294;2023-03-04T02:08:06;99842.41;;;7.68;82.32
18819;BME280;9537;45.594;9.294;2023-03-04T02:09:09;99833.69;;;7.68;82.84
18819;BME280;9537;45.594;9.294;2023-03-04T02:10:12;99836.31;;;7.68;82.11
18819;BME280;9537;45.594;9.294;2023-03-04T02:11:14;99835.50;;;7.67;82.47
18819;BME280;9537;45.594;9.294;2023-03-04T02:12:15;99839.09;;;7.66;82.97
18819;BME280;9537;45.594;9.294;2023-03-04T02:13:18;99832.88;;;7.67;82.13
18819;BME280;9537;45.594;9.294;2023-03-04T02:14:19;99835.81;;;7.64;82.56
18819;BME280;9537;45.594;9.294;2023-03-04T02:15:22;99828.06;;;7.63;82.43
18819;BME280;9537;45.594;9.294;2023-03-04T02:16:24;99833.00;;;7.66;82.81
18819;BME280;9537;45.594;9.294;2023-03-04T02:17:26;99827.91;;;7.64;82.64
18819;BME280;9537;45.594;9.294;2023-03-04T02:18:28;99825.44;;;7.63;82.36
18819;BME280;9537;45.594;9.294;2023-03-04T02:19:38;99827.91;;;7.64;82.79
18819;BME280;9537;45.594;9.294;2023-03-04T02:20:48;99832.19;;;7.65;83.00
18819;BME280;9537;45.594;9.294;2023-03-04T02:21:52;99825.94;;;7.66;82.22
18819;BME280;9537;45.594;9.294;2023-03-04T02:23:00;99824.00;;;7.68;82.37
18819;BME280;9537;45.594;9.294;2023-03-04T02:24:11;99825.00;;;7.67;82.85
18819;BME280;9537;45.594;9.294;2023-03-04T02:25:19;99823.47;;;7.65;83.01
18819;BME280;9537;45.594;9.294;2023-03-04T02:26:24;99822.34;;;7.67;82.44
18819;BME280;9537;45.594;9.294;2023-03-04T02:27:26;99820.84;;;7.65;82.93
18819;BME280;9537;45.594;9.294;2023-03-04T02:28:28;99821.16;;;7.62;83.13
18819;BME280;9537;45.594;9.294;2023-03-04T02:29:29;99819.47;;;7.61;83.19
18819;BME280;9537;45.594;9.294;2023-03-04T02:30:31;99817.69;;;7.61;83.27
18819;BME280;9537;45.594;9.294;2023-03-04T02:31:34;99819.34;;;7.62;83.17
18819;BME280;9537;45.594;9.294;2023-03-04T02:32:41;99811.16;;;7.65;82.84
18819;BME280;9537;45.594;9.294;2023-03-04T02:33:42;99814.22;;;7.61;83.12
18819;BME280;9537;45.594;9.294;2023-03-04T02:34:45;99808.63;;;7.56;82.37
18819;BME280;9537;45.594;9.294;2023-03-04T02:35:47;99809.72;;;7.53;83.09
18819;BME280;9537;45.594;9.294;2023-03-04T02:36:51;99811.25;;;7.56;83.24
18819;BME280;9537;45.594;9.294;2023-03-04T02:37:52;99809.44;;;7.56;82.75
18819;BME280;9537;45.594;9.294;2023-03-04T02:38:55;99813.19;;;7.54;82.87
18819;BME280;9537;45.594;9.294;2023-03-04T02:39:56;99811.25;;;7.56;83.25
18819;BME280;9537;45.594;9.294;2023-03-04T02:40:59;99805.13;;;7.55;83.20
18819;BME280;9537;45.594;9.294;2023-03-04T02:42:02;99810.13;;;7.58;83.31
18819;BME280;9537;45.594;9.294;2023-03-04T02:43:05;99802.88;;;7.60;83.15
18819;BME280;9537;45.594;9.294;2023-03-04T02:44:15;99807.31;;;7.60;83.10
18819;BME280;9537;45.594;9.294;2023-03-04T02:45:34;99805.00;;;7.57;83.23
18819;BME280;9537;45.594;9.294;2023-03-04T02:46:35;99811.91;;;7.58;83.88
18819;BME280;9537;45.594;9.294;2023-03-04T02:47:37;99800.72;;;7.56;83.01
18819;BME280;9537;45.594;9.294;2023-03-04T02:48:38;99810.25;;;7.57;83.91
18819;BME280;9537;45.594;9.294;2023-03-04T02:49:40;99807.50;;;7.58;83.88
18819;BME280;9537;45.594;9.294;2023-03-04T02:50:43;99801.38;;;7.58;83.80
18819;BME280;9537;45.594;9.294;2023-03-04T02:51:48;99810.13;;;7.58;83.76
18819;BME280;9537;45.594;9.294;2023-03-04T02:52:50;99797.94;;;7.57;83.69
18819;BME280;9537;45.594;9.294;2023-03-04T02:53:52;99804.00;;;7.58;83.09
18819;BME280;9537;45.594;9.294;2023-03-04T02:54:53;99807.94;;;7.54;83.17
18819;BME280;9537;45.594;9.294;2023-03-04T02:55:55;99803.72;;;7.43;83.47
18819;BME280;9537;45.594;9.294;2023-03-04T02:56:59;99802.75;;;7.44;83.60
18819;BME280;9537;45.594;9.294;2023-03-04T02:58:03;99803.03;;;7.41;83.70
18819;BME280;9537;45.594;9.294;2023-03-04T02:59:04;99805.66;;;7.41;83.67
18819;BME280;9537;45.594;9.294;2023-03-04T03:00:07;99808.00;;;7.44;83.91
18819;BME280;9537;45.594;9.294;2023-03-04T03:01:08;99808.84;;;7.44;83.63
18819;BME280;9537;45.594;9.294;2023-03-04T03:02:10;99806.19;;;7.44;83.59
18819;BME280;9537;45.594;9.294;2023-03-04T03:03:11;99808.13;;;7.42;83.38
18819;BME280;9537;45.594;9.294;2023-03-04T03:04:15;99807.16;;;7.43;83.75
18819;BME280;9537;45.594;9.294;2023-03-04T03:05:16;99803.41;;;7.46;83.58
18819;BME280;9537;45.594;9.294;2023-03-04T03:06:18;99802.88;;;7.42;84.02
18819;BME280;9537;45.594;9.294;2023-03-04T03:07:19;99805.50;;;7.42;83.75
18819;BME280;9537;45.594;9.294;2023-03-04T03:08:21;99798.75;;;7.40;83.74
18819;BME280;9537;45.594;9.294;2023-03-04T03:09:23;99809.13;;;7.41;83.78
18819;BME280;9537;45.594;9.294;2023-03-04T03:10:26;99801.53;;;7.38;84.13
18819;BME280;9537;45.594;9.294;2023-03-04T03:11:27;99804.16;;;7.38;84.25
18819;BME280;9537;45.594;9.294;2023-03-04T03:12:28;99805.00;;;7.39;84.36
18819;BME280;9537;45.594;9.294;2023-03-04T03:13:31;99804.00;;;7.40;83.80
18819;BME280;9537;45.594;9.294;2023-03-04T03:14:33;99801.69;;;7.37;84.53
18819;BME280;9537;45.594;9.294;2023-03-04T03:15:34;99799.19;;;7.35;84.44
18819;BME280;9537;45.594;9.294;2023-03-04T03:16:41;99804.75;;;7.32;83.92
18819;BME280;9537;45.594;9.294;2023-03-04T03:17:42;99801.28;;;7.32;84.35
18819;BME280;9537;45.594;9.294;2023-03-04T03:18:44;99798.97;;;7.29;84.24
18819;BME280;9537;45.594;9.294;2023-03-04T03:19:45;99795.94;;;7.23;84.65
18819;BME280;9537;45.594;9.294;2023-03-04T03:20:47;99797.31;;;7.28;84.94
18819;BME280;9537;45.594;9.294;2023-03-04T03:21:48;99800.47;;;7.31;84.42
18819;BME280;9537;45.594;9.294;2023-03-04T03:22:50;99797.72;;;7.33;83.94
18819;BME280;9537;45.594;9.294;2023-03-04T03:23:51;99795.50;;;7.28;83.78
18819;BME280;9537;45.594;9.294;2023-03-04T03:24:53;99793.72;;;7.29;84.59
18819;BME280;9537;45.594;9.294;2023-03-04T03:25:54;99797.16;;;7.29;84.18
18819;BME280;9537;45.594;9.294;2023-03-04T03:26:57;99800.63;;;7.30;83.96
18819;BME280;9537;45.594;9.294;2023-03-04T03:27:58;99797.03;;;7.31;84.09
18819;BME280;9537;45.594;9.294;2023-03-04T03:29:01;99803.09;;;7.31;83.92
18819;BME280;9537;45.594;9.294;2023-03-04T03:30:03;99793.41;;;7.32;83.68
18819;BME280;9537;45.594;9.294;2023-03-04T03:31:05;99798.38;;;7.35;84.16
18819;BME280;9537;45.594;9.294;2023-03-04T03:32:06;99799.88;;;7.37;84.03
18819;BME280;9537;45.594;9.294;2023-03-04T03:33:08;99799.88;;;7.37;83.28
18819;BME280;9537;45.594;9.294;2023-03-04T03:34:10;99798.91;;;7.38;83.58
18819;BME280;9537;45.594;9.294;2023-03-04T03:35:12;99787.72;;;7.36;83.21
18819;BME280;9537;45.594;9.294;2023-03-04T03:36:13;99795.44;;;7.38;83.54
18819;BME280;9537;45.594;9.294;2023-03-04T03:37:15;99795.13;;;7.41;83.68
18819;BME280;9537;45.594;9.294;2023-03-04T03:38:16;99788.94;;;7.42;83.46
18819;BME280;9537;45.594;9.294;2023-03-04T03:39:18;99789.75;;;7.42;83.58
18819;BME280;9537;45.594;9.294;2023-03-04T03:40:19;99790.56;;;7.43;82.48
18819;BME280;9537;45.594;9.294;2023-03-04T03:41:21;99788.25;;;7.40;82.72
18819;BME280;9537;45.594;9.294;2023-03-04T03:42:22;99789.38;;;7.37;82.86
18819;BME280;9537;45.594;9.294;2023-03-04T03:43:24;99788.53;;;7.37;83.02
18819;BME280;9537;45.594;9.294;2023-03-04T03:44:26;99796.56;;;7.35;82.45
18819;BME280;9537;45.594;9.294;2023-03-04T03:45:28;99790.47;;;7.35;83.17
18819;BME280;9537;45.594;9.294;2023-03-04T03:46:29;99794.78;;;7.36;82.83
18819;BME280;9537;45.594;9.294;2023-03-04T03:47:32;99792.28;;;7.34;83.05
18819;BME280;9537;45.594;9.294;2023-03-04T03:48:33;99791.59;;;7.32;82.51
18819;BME280;9537;45.594;9.294;2023-03-04T03:49:35;99795.22;;;7.31;82.15
18819;BME280;9537;45.594;9.294;2023-03-04T03:50:36;99792.06;;;7.28;82.38
18819;BME280;9537;45.594;9.294;2023-03-04T03:51:38;99794.16;;;7.24;82.32
18819;BME280;9537;45.594;9.294;2023-03-04T03:52:39;99785.44;;;7.23;81.31
18819;BME280;9537;45.594;9.294;2023-03-04T03:53:41;99783.28;;;7.19;81.75
18819;BME280;9537;45.594;9.294;2023-03-04T03:54:42;99790.63;;;7.15;81.37
18819;BME280;9537;45.594;9.294;2023-03-04T03:55:44;99786.31;;;7.14;81.50
18819;BME280;9537;45.594;9.294;2023-03-04T03:56:45;99783.69;;;7.14;80.80
18819;BME280;9537;45.594;9.294;2023-03-04T03:57:47;99790.06;;;7.12;81.23
18819;BME280;9537;45.594;9.294;2023-03-04T03:58:48;99785.94;;;7.09;81.40
18819;BME280;9537;45.594;9.294;2023-03-04T03:59:51;99786.81;;;7.00;81.33
18819;BME280;9537;45.594;9.294;2023-03-04T04:00:52;99785.91;;;6.91;81.31
18819;BME280;9537;45.594;9.294;2023-03-04T04:01:54;99779.84;;;6.91;81.32
18819;BME280;9537;45.594;9.294;2023-03-04T04:02:57;99784.50;;;6.97;81.44
18819;BME280;9537;45.594;9.294;2023-03-04T04:04:00;99785.78;;;6.93;81.36
18819;BME280;9537;45.594;9.294;2023-03-04T04:05:01;99780.66;;;6.91;81.72
18819;BME280;9537;45.594;9.294;2023-03-04T04:06:04;99784.09;;;6.92;81.63
18819;BME280;9537;45.594;9.294;2023-03-04T04:07:05;99783.56;;;6.88;81.00
18819;BME280;9537;45.594;9.294;2023-03-04T04:08:10;99785.97;;;6.82;80.55
18819;BME280;9537;45.594;9.294;2023-03-04T04:09:12;99785.56;;;6.76;81.01
18819;BME280;9537;45.594;9.294;2023-03-04T04:10:14;99792.63;;;6.76;80.71
18819;BME280;9537;45.594;9.294;2023-03-04T04:11:15;99783.06;;;6.75;81.21
18819;BME280;9537;45.594;9.294;2023-03-04T04:12:18;99786.56;;;6.66;80.54
18819;BME280;9537;45.594;9.294;2023-03-04T04:13:19;99788.38;;;6.65;80.93
18819;BME280;9537;45.594;9.294;2023-03-04T04:14:21;99788.50;;;6.64;80.85
18819;BME280;9537;45.594;9.294;2023-03-04T04:15:23;99790.06;;;6.57;81.83
18819;BME280;9537;45.594;9.294;2023-03-04T04:16:25;99784.00;;;6.56;81.91
18819;BME280;9537;45.594;9.294;2023-03-04T04:17:26;99788.94;;;6.59;82.35
18819;BME280;9537;45.594;9.294;2023-03-04T04:18:28;99793.75;;;6.64;81.77
18819;BME280;9537;45.594;9.294;2023-03-04T04:19:29;99788.50;;;6.64;82.08
18819;BME280;9537;45.594;9.294;2023-03-04T04:20:31;99793.09;;;6.62;81.48
18819;BME280;9537;45.594;9.294;2023-03-04T04:21:32;99789.94;;;6.58;82.06
18819;BME280;9537;45.594;9.294;2023-03-04T04:22:34;99793.09;;;6.62;81.95
18819;BME280;9537;45.594;9.294;2023-03-04T04:23:35;99793.66;;;6.56;82.33
18819;BME280;9537;45.594;9.294;2023-03-04T04:24:37;99794.91;;;6.51;82.37
18819;BME280;9537;45.594;9.294;2023-03-04T04:25:38;99802.09;;;6.49;82.67
18819;BME280;9537;45.594;9.294;2023-03-04T04:26:40;99790.47;;;6.52;82.67
18819;BME280;9537;45.594;9.294;2023-03-04T04:27:41;99788.00;;;6.50;81.37
18819;BME280;9537;45.594;9.294;2023-03-04T04:28:43;99787.75;;;6.44;82.25
18819;BME280;9537;45.594;9.294;2023-03-04T04:29:44;99793.00;;;6.44;81.95
18819;BME280;9537;45.594;9.294;2023-03-04T04:30:48;99788.44;;;6.46;81.88
18819;BME280;9537;45.594;9.294;2023-03-04T04:31:49;99792.28;;;6.51;81.86
18819;BME280;9537;45.594;9.294;2023-03-04T04:32:51;99792.97;;;6.53;81.07
18819;BME280;9537;45.594;9.294;2023-03-04T04:33:52;99794.50;;;6.56;80.87
18819;BME280;9537;45.594;9.294;2023-03-04T04:34:54;99794.50;;;6.56;81.24
18819;BME280;9537;45.594;9.294;2023-03-04T04:35:55;99794.22;;;6.49;81.14
18819;BME280;9537;45.594;9.294;2023-03-04T04:36:57;99793.41;;;6.49;81.10
18819;BME280;9537;45.594;9.294;2023-03-04T04:37:59;99798.81;;;6.47;81.29
18819;BME280;9537;45.594;9.294;2023-03-04T04:39:00;99797.81;;;6.48;80.81
18819;BME280;9537;45.594;9.294;2023-03-04T04:40:02;99794.25;;;6.40;80.59
18819;BME280;9537;45.594;9.294;2023-03-04T04:41:03;99789.72;;;6.32;80.57
18819;BME280;9537;45.594;9.294;2023-03-04T04:42:06;99795.53;;;6.26;80.60
18819;BME280;9537;45.594;9.294;2023-03-04T04:43:07;99792.25;;;6.24;81.14
18819;BME280;9537;45.594;9.294;2023-03-04T04:44:09;99793.44;;;6.29;81.26
18819;BME280;9537;45.594;9.294;2023-03-04T04:45:11;99790.44;;;6.24;80.90
18819;BME280;9537;45.594;9.294;2023-03-04T04:46:14;99801.06;;;6.23;81.58
18819;BME280;9537;45.594;9.294;2023-03-04T04:47:15;99792.66;;;6.19;80.58
18819;BME280;9537;45.594;9.294;2023-03-04T04:48:17;99796.91;;;6.20;81.32
18819;BME280;9537;45.594;9.294;2023-03-04T04:49:18;99802.72;;;6.14;81.99
18819;BME280;9537;45.594;9.294;2023-03-04T04:50:20;99795.56;;;6.16;81.31
18819;BME280;9537;45.594;9.294;2023-03-04T04:51:21;99801.75;;;6.15;81.43
18819;BME280;9537;45.594;9.294;2023-03-04T04:52:23;99801.22;;;6.12;81.77
18819;BME280;9537;45.594;9.294;2023-03-04T04:53:24;99795.97;;;6.12;81.31
18819;BME280;9537;45.594;9.294;2023-03-04T04:54:26;99792.00;;;6.07;82.01
18819;BME280;9537;45.594;9.294;2023-03-04T04:55:27;99791.16;;;6.07;81.46
18819;BME280;9537;45.594;9.294;2023-03-04T04:56:29;99792.56;;;6.01;81.74
18819;BME280;9537;45.594;9.294;2023-03-04T04:57:32;99801.38;;;6.00;80.82
18819;BME280;9537;45.594;9.294;2023-03-04T04:58:33;99785.50;;;6.02;81.07
18819;BME280;9537;45.594;9.294;2023-03-04T04:59:35;99793.38;;;6.02;80.20
18819;BME280;9537;45.594;9.294;2023-03-04T05:00:37;99798.19;;;5.87;80.37
18819;BME280;9537;45.594;9.294;2023-03-04T05:01:39;99796.41;;;5.87;80.96
18819;BME280;9537;45.594;9.294;2023-03-04T05:02:42;99791.44;;;5.84;81.22
18819;BME280;9537;45.594;9.294;2023-03-04T05:03:43;99799.97;;;5.77;81.70
18819;BME280;9537;45.594;9.294;2023-03-04T05:04:45;99793.63;;;5.79;81.41
18819;BME280;9537;45.594;9.294;2023-03-04T05:05:46;99796.13;;;5.81;81.95
18819;BME280;9537;45.594;9.294;2023-03-04T05:06:48;99792.53;;;5.82;81.53
18819;BME280;9537;45.594;9.294;2023-03-04T05:07:49;99787.03;;;5.75;81.53
18819;BME280;9537;45.594;9.294;2023-03-04T05:08:51;99792.50;;;5.72;81.36
18819;BME280;9537;45.594;9.294;2023-03-04T05:09:52;99793.66;;;5.70;81.76
18819;BME280;9537;45.594;9.294;2023-03-04T05:10:55;99790.06;;;5.71;81.65
18819;BME280;9537;45.594;9.294;2023-03-04T05:11:56;99792.50;;;5.72;81.79
18819;BME280;9537;45.594;9.294;2023-03-04T05:12:58;99789.06;;;5.72;82.43
18819;BME280;9537;45.594;9.294;2023-03-04T05:13:59;99787.28;;;5.72;82.04
18819;BME280;9537;45.594;9.294;2023-03-04T05:15:01;99781.78;;;5.75;82.17
18819;BME280;9537;45.594;9.294;2023-03-04T05:16:03;99796.25;;;5.79;81.69
18819;BME280;9537;45.594;9.294;2023-03-04T05:17:06;99789.22;;;5.80;81.62
18819;BME280;9537;45.594;9.294;2023-03-04T05:18:07;99789.38;;;5.78;82.03
18819;BME280;9537;45.594;9.294;2023-03-04T05:19:09;99784.66;;;5.82;81.69
18819;BME280;9537;45.594;9.294;2023-03-04T05:20:11;99787.84;;;5.76;81.19
18819;BME280;9537;45.594;9.294;2023-03-04T05:21:13;99790.19;;;5.79;81.07
18819;BME280;9537;45.594;9.294;2023-03-04T05:22:14;99792.00;;;5.78;81.90
18819;BME280;9537;45.594;9.294;2023-03-04T05:23:16;99790.72;;;5.82;81.58
18819;BME280;9537;45.594;9.294;2023-03-04T05:24:17;99790.03;;;5.80;81.53
18819;BME280;9537;45.594;9.294;2023-03-04T05:25:19;99786.75;;;5.78;81.47
18819;BME280;9537;45.594;9.294;2023-03-04T05:26:20;99787.28;;;5.82;81.50
18819;BME280;9537;45.594;9.294;2023-03-04T05:27:22;99786.84;;;5.86;81.51
18819;BME280;9537;45.594;9.294;2023-03-04T05:28:24;99785.63;;;5.91;80.88
18819;BME280;9537;45.594;9.294;2023-03-04T05:29:26;99783.81;;;5.91;81.17
18819;BME280;9537;45.594;9.294;2023-03-04T05:30:27;99789.88;;;5.92;80.86
18819;BME280;9537;45.594;9.294;2023-03-04T05:31:29;99793.06;;;5.85;80.27
18819;BME280;9537;45.594;9.294;2023-03-04T05:32:31;99787.84;;;5.85;80.04
18819;BME280;9537;45.594;9.294;2023-03-04T05:33:33;99788.50;;;5.78;80.45
18819;BME280;9537;45.594;9.294;2023-03-04T05:34:34;99787.03;;;5.75;80.48
18819;BME280;9537;45.594;9.294;2023-03-04T05:35:37;99784.00;;;5.70;80.81
18819;BME280;9537;45.594;9.294;2023-03-04T05:36:39;99787.72;;;5.68;81.02
18819;BME280;9537;45.594;9.294;2023-03-04T05:37:40;99787.00;;;5.65;80.65